Time;durP1;ratioP1;P1;durP2;ratioP2;P2;SDS_P1;SDS_P2;PMS_P1;PMS_P2;Temp;Humidity;BMP_temperature;BMP_pressure;BME280_temperature;BME280_humidity;BME280_pressure;Samples;Min_cycle;Max_cycle;Signal;HPM_P1;HPM_P2
2023/12/22 00:01:08;;;;;;;0.50;0.40;;;;;;;7.93;100.00;94868.59;5038902;28;20225;-69
2023/12/22 00:03:35;;;;;;;0.63;0.40;;;;;;;7.96;100.00;94896.25;5038736;28;20211;-69
2023/12/22 00:06:03;;;;;;;0.33;0.33;;;;;;;7.88;100.00;94880.69;5038731;28;20197;-69
2023/12/22 00:08:29;;;;;;;0.60;0.60;;;;;;;7.81;100.00;94892.13;5036513;28;20206;-70
2023/12/22 00:10:56;;;;;;;1.30;0.70;;;;;;;7.68;100.00;94895.47;5037975;28;20201;-68
2023/12/22 00:13:22;;;;;;;1.00;0.40;;;;;;;7.55;100.00;94874.41;5038621;28;20843;-68
2023/12/22 00:15:49;;;;;;;0.37;0.37;;;;;;;7.47;100.00;94885.03;5037916;28;20215;-70
2023/12/22 00:18:15;;;;;;;0.47;0.47;;;;;;;7.42;100.00;94874.31;5038685;28;20197;-68
2023/12/22 00:20:42;;;;;;;1.63;0.50;;;;;;;7.59;100.00;94867.78;5037570;28;20225;-69
2023/12/22 00:23:10;;;;;;;0.50;0.50;;;;;;;7.79;100.00;94866.09;5038543;28;20386;-68
2023/12/22 00:25:36;;;;;;;4.00;0.60;;;;;;;7.39;100.00;94884.38;5037635;28;21008;-72
2023/12/22 00:28:03;;;;;;;0.40;0.40;;;;;;;7.58;100.00;94875.84;5038392;28;20208;-69
2023/12/22 00:30:30;;;;;;;0.60;0.60;;;;;;;7.53;100.00;94881.63;5038206;28;20197;-68
2023/12/22 00:32:56;;;;;;;0.40;0.40;;;;;;;7.59;100.00;94875.66;5037685;28;20228;-71
2023/12/22 00:35:23;;;;;;;1.30;0.80;;;;;;;7.49;100.00;94866.50;5038092;28;20212;-68
2023/12/22 00:37:49;;;;;;;0.30;0.30;;;;;;;7.52;100.00;94880.03;5037597;28;20217;-69
2023/12/22 00:40:17;;;;;;;2.13;0.87;;;;;;;7.61;100.00;94891.16;5037924;28;20207;-71
2023/12/22 00:42:44;;;;;;;0.47;0.47;;;;;;;7.49;100.00;94882.22;5037808;28;20837;-69
2023/12/22 00:45:10;;;;;;;0.70;0.70;;;;;;;7.38;100.00;94908.94;5038253;28;20197;-70
2023/12/22 00:47:38;;;;;;;0.40;0.40;;;;;;;7.45;100.00;94900.13;5038263;28;20201;-68
2023/12/22 00:50:05;;;;;;;0.30;0.30;;;;;;;7.43;100.00;94914.44;5038421;28;20261;-68
2023/12/22 00:52:31;;;;;;;0.30;0.30;;;;;;;7.45;100.00;94912.44;5037163;28;20225;-69
2023/12/22 00:54:58;;;;;;;0.50;0.50;;;;;;;7.34;100.00;94903.28;5036601;28;20209;-69
2023/12/22 00:57:26;;;;;;;0.30;0.30;;;;;;;7.40;100.00;94909.56;5037893;28;20205;-69
2023/12/22 00:59:52;;;;;;;0.60;0.47;;;;;;;7.21;100.00;94912.03;5037658;28;20206;-70
2023/12/22 01:02:20;;;;;;;0.30;0.27;;;;;;;7.24;100.00;94916.88;5036997;28;20231;-68
2023/12/22 01:04:46;;;;;;;0.60;0.53;;;;;;;7.10;100.00;94917.78;5037069;28;20207;-68
2023/12/22 01:07:14;;;;;;;0.70;0.60;;;;;;;7.04;100.00;94908.03;5038137;28;20585;-69
2023/12/22 01:09:40;;;;;;;0.70;0.70;;;;;;;7.13;100.00;94904.28;5037429;28;20553;-68
2023/12/22 01:12:07;;;;;;;2.00;0.40;;;;;;;7.25;100.00;94908.03;5036547;28;20239;-68
2023/12/22 01:14:35;;;;;;;0.30;0.30;;;;;;;7.25;100.00;94897.56;5037367;28;21192;-70
2023/12/22 01:17:02;;;;;;;4.87;0.60;;;;;;;7.18;100.00;94900.13;5037983;28;20212;-70
2023/12/22 01:19:28;;;;;;;1.43;0.50;;;;;;;7.13;100.00;94917.38;5037693;28;20206;-69
2023/12/22 01:21:55;;;;;;;0.50;0.50;;;;;;;7.06;100.00;94924.38;5036635;28;20315;-71
2023/12/22 01:24:21;;;;;;;0.97;0.60;;;;;;;7.11;100.00;94935.09;5037491;28;20675;-70
2023/12/22 01:26:48;;;;;;;2.77;0.60;;;;;;;7.04;100.00;94936.84;5036532;28;20209;-68
2023/12/22 01:29:14;;;;;;;0.60;0.60;;;;;;;7.04;100.00;94963.03;5037138;28;20201;-69
2023/12/22 01:31:42;;;;;;;0.70;0.63;;;;;;;7.28;100.00;94945.16;5036392;28;20229;-71
2023/12/22 01:34:09;;;;;;;1.33;1.03;;;;;;;6.89;100.00;94912.53;5037498;28;20666;-70
2023/12/22 01:36:36;;;;;;;3.40;0.30;;;;;;;6.89;100.00;94928.25;5037118;28;21145;-69
2023/12/22 01:39:03;;;;;;;0.83;0.60;;;;;;;6.93;100.00;94934.72;5036891;28;20251;-68
2023/12/22 01:41:29;;;;;;;0.40;0.40;;;;;;;7.01;100.00;94947.69;5036007;28;20228;-71
2023/12/22 01:43:56;;;;;;;4.13;0.63;;;;;;;7.10;100.00;94959.69;5036813;28;20197;-68
2023/12/22 01:46:22;;;;;;;0.30;0.30;;;;;;;7.04;100.00;94942.06;5036840;28;20203;-69
2023/12/22 01:48:51;;;;;;;0.73;0.50;;;;;;;7.19;100.00;94942.84;5036003;28;20671;-70
2023/12/22 01:51:18;;;;;;;0.80;0.40;;;;;;;7.04;100.00;94942.06;5036014;28;20217;-69
2023/12/22 01:53:46;;;;;;;0.40;0.40;;;;;;;7.33;100.00;94932.28;5036756;28;20212;-69
2023/12/22 01:56:13;;;;;;;0.53;0.40;;;;;;;7.33;100.00;94929.66;5036338;28;20208;-70
2023/12/22 01:58:40;;;;;;;0.53;0.40;;;;;;;7.32;100.00;94921.00;5036329;28;20205;-68
2023/12/22 02:01:08;;;;;;;0.57;0.40;;;;;;;6.83;100.00;94935.03;5036283;28;20225;-72
2023/12/22 02:03:36;;;;;;;0.40;0.40;;;;;;;7.10;100.00;94910.72;5036923;28;20205;-71
2023/12/22 02:06:05;;;;;;;0.47;0.40;;;;;;;7.16;100.00;94915.22;5036849;28;20212;-68
2023/12/22 02:08:33;;;;;;;1.17;0.43;;;;;;;7.06;100.00;94913.91;5036480;28;20197;-68
2023/12/22 02:10:59;;;;;;;0.30;0.30;;;;;;;6.68;100.00;94902.03;5034999;28;20201;-71
2023/12/22 02:13:26;;;;;;;1.70;0.57;;;;;;;6.70;100.00;94905.28;5036513;28;21166;-72
2023/12/22 02:16:04;;;;;;;0.60;0.60;;;;;;;6.84;100.00;94901.81;5037110;28;20201;-68
2023/12/22 02:18:35;;;;;;;0.83;0.50;;;;;;;6.79;100.00;94904.19;5036739;28;20246;-71
2023/12/22 02:21:02;;;;;;;0.40;0.40;;;;;;;6.60;100.00;94907.41;5035758;28;20220;-69
2023/12/22 02:23:30;;;;;;;0.77;0.50;;;;;;;6.82;100.00;94901.19;5036109;28;20227;-68
2023/12/22 02:26:04;;;;;;;0.70;0.50;;;;;;;6.94;100.00;94897.09;5036184;28;20209;-68
2023/12/22 02:28:32;;;;;;;1.10;0.50;;;;;;;6.97;100.00;94894.09;5036528;28;20201;-68
2023/12/22 02:31:05;;;;;;;0.50;0.50;;;;;;;7.16;100.00;94903.94;5035226;28;20206;-68
2023/12/22 02:33:34;;;;;;;0.30;0.30;;;;;;;7.21;100.00;94896.31;5036520;28;20220;-69
2023/12/22 02:36:04;;;;;;;0.50;0.50;;;;;;;7.54;100.00;94879.84;5035536;28;20666;-68
2023/12/22 02:38:35;;;;;;;0.77;0.50;;;;;;;7.63;100.00;94866.38;5036170;28;20212;-68
2023/12/22 02:41:03;;;;;;;0.30;0.30;;;;;;;7.63;100.00;94848.03;5035395;28;20231;-69
2023/12/22 02:43:29;;;;;;;18.33;0.97;;;;;;;7.81;100.00;94886.88;5036044;28;20213;-67
2023/12/22 02:45:56;;;;;;;0.50;0.50;;;;;;;7.89;100.00;94888.34;5035922;28;20201;-68
2023/12/22 02:48:22;;;;;;;2.20;0.80;;;;;;;7.86;100.00;94899.19;5035946;28;20572;-68
2023/12/22 02:50:50;;;;;;;0.30;0.30;;;;;;;8.03;100.00;94876.09;5035699;28;20201;-69
2023/12/22 02:53:16;;;;;;;0.50;0.50;;;;;;;8.00;100.00;94884.34;5035564;28;20271;-68
2023/12/22 02:55:44;;;;;;;0.30;0.30;;;;;;;8.17;100.00;94894.38;5036277;28;20205;-67
2023/12/22 02:58:11;;;;;;;0.50;0.50;;;;;;;8.00;100.00;94905.34;5035341;28;20207;-71
2023/12/22 03:00:38;;;;;;;0.30;0.30;;;;;;;7.91;100.00;94880.28;5035094;28;20204;-68
2023/12/22 03:03:05;;;;;;;0.40;0.40;;;;;;;7.96;100.00;94876.06;5035810;28;20221;-70
2023/12/22 03:05:31;;;;;;;0.37;0.37;;;;;;;7.85;100.00;94873.16;5035937;28;20202;-71
2023/12/22 03:07:58;;;;;;;0.50;0.50;;;;;;;7.92;100.00;94905.50;5035312;28;20213;-71
2023/12/22 03:10:24;;;;;;;0.57;0.40;;;;;;;7.95;100.00;94932.13;5035734;28;20208;-70
2023/12/22 03:12:52;;;;;;;0.40;0.40;;;;;;;8.12;100.00;94909.03;5035355;28;20590;-68
2023/12/22 03:15:18;;;;;;;0.40;0.40;;;;;;;7.96;100.00;94936.38;5035086;28;20687;-70
2023/12/22 03:17:45;;;;;;;0.67;0.60;;;;;;;7.99;100.00;94908.97;5037003;28;20201;-68
2023/12/22 03:20:12;;;;;;;2.90;0.97;;;;;;;7.95;100.00;94907.72;5040024;28;20205;-69
2023/12/22 03:22:38;;;;;;;3.87;0.90;;;;;;;7.91;100.00;94906.50;5036749;28;20239;-69
2023/12/22 03:25:05;;;;;;;0.40;0.40;;;;;;;8.02;100.00;94898.09;5039706;28;20201;-68
2023/12/22 03:27:32;;;;;;;3.90;0.70;;;;;;;7.91;100.00;94885.53;5040392;28;20204;-69
2023/12/22 03:30:01;;;;;;;0.27;0.27;;;;;;;8.04;100.00;94896.91;5039288;28;20209;-69
2023/12/22 03:32:28;;;;;;;0.30;0.30;;;;;;;7.86;100.00;94884.50;5038682;28;20588;-71
2023/12/22 03:34:54;;;;;;;0.30;0.30;;;;;;;7.96;100.00;94902.28;5039283;28;20668;-70
2023/12/22 03:37:21;;;;;;;0.37;0.37;;;;;;;7.96;100.00;94898.88;5038799;28;20201;-69
2023/12/22 03:39:47;;;;;;;0.30;0.30;;;;;;;7.93;100.00;94886.16;5039266;28;20205;-70
2023/12/22 03:42:14;;;;;;;0.40;0.40;;;;;;;7.93;100.00;94901.88;5038660;28;20221;-68
2023/12/22 03:44:40;;;;;;;0.30;0.30;;;;;;;7.92;100.00;94877.47;5038973;28;20201;-68
2023/12/22 03:47:08;;;;;;;0.60;0.60;;;;;;;8.04;100.00;94917.91;5039395;28;20205;-70
2023/12/22 03:49:35;;;;;;;1.13;0.60;;;;;;;7.98;100.00;94896.84;5038733;28;20201;-69
2023/12/22 03:52:01;;;;;;;1.13;0.50;;;;;;;7.91;100.00;94896.00;5038476;28;20272;-69
2023/12/22 03:54:28;;;;;;;2.20;0.50;;;;;;;7.91;100.00;94896.81;5039051;28;20215;-69
2023/12/22 03:56:54;;;;;;;0.30;0.30;;;;;;;7.91;100.00;94898.63;5038216;28;20205;-68
2023/12/22 03:59:20;;;;;;;0.37;0.37;;;;;;;7.96;100.00;94911.97;5038977;28;20209;-69
2023/12/22 04:01:51;;;;;;;4.20;0.83;;;;;;;8.22;100.00;94906.91;5038360;28;20238;-71
2023/12/22 04:04:21;;;;;;;0.60;0.60;;;;;;;8.14;100.00;94922.81;5038220;28;20201;-68
2023/12/22 04:06:48;;;;;;;0.30;0.30;;;;;;;8.06;100.00;94928.19;5038623;28;20204;-68
2023/12/22 04:09:14;;;;;;;1.47;0.80;;;;;;;8.22;100.00;94901.66;5038830;28;20204;-68
2023/12/22 04:11:41;;;;;;;0.40;0.40;;;;;;;8.23;100.00;94932.94;5038090;28;20223;-71
2023/12/22 04:14:08;;;;;;;0.53;0.53;;;;;;;8.36;100.00;94908.59;5038741;28;20198;-69
2023/12/22 04:16:37;;;;;;;0.30;0.30;;;;;;;8.46;100.00;94907.22;5038526;28;20981;-68
2023/12/22 04:19:04;;;;;;;0.30;0.30;;;;;;;8.25;100.00;94932.75;5038225;28;20202;-71
2023/12/22 04:21:31;;;;;;;0.50;0.50;;;;;;;8.41;100.00;94925.34;5037608;28;20339;-71
2023/12/22 04:23:58;;;;;;;2.83;0.60;;;;;;;8.32;100.00;94930.97;5038456;28;20689;-70
2023/12/22 04:26:24;;;;;;;0.50;0.50;;;;;;;8.42;100.00;94931.44;5037959;28;20198;-68
2023/12/22 04:28:51;;;;;;;1.30;0.50;;;;;;;8.23;100.00;94964.41;5037899;28;20205;-72
2023/12/22 04:31:18;;;;;;;4.00;0.40;;;;;;;8.39;100.00;94923.94;5037783;28;20263;-68
2023/12/22 04:33:44;;;;;;;0.77;0.60;;;;;;;8.32;100.00;94923.09;5037955;28;20563;-70
2023/12/22 04:36:11;;;;;;;2.33;0.30;;;;;;;8.25;100.00;94917.00;5037686;28;20300;-71
2023/12/22 04:38:40;;;;;;;0.77;0.77;;;;;;;8.35;100.00;94962.06;5038112;28;20741;-68
2023/12/22 04:41:06;;;;;;;0.30;0.30;;;;;;;8.23;100.00;94942.63;5038629;28;20204;-68
2023/12/22 04:43:33;;;;;;;0.40;0.40;;;;;;;8.26;100.00;94957.97;5037881;28;20225;-68
2023/12/22 04:45:59;;;;;;;0.93;0.43;;;;;;;8.15;100.00;94955.91;5037509;28;20208;-69
2023/12/22 04:48:26;;;;;;;0.40;0.40;;;;;;;8.01;100.00;94975.16;5037869;28;20204;-69
2023/12/22 04:50:52;;;;;;;2.50;1.27;;;;;;;7.80;100.00;94974.41;5037971;28;20209;-69
2023/12/22 04:53:19;;;;;;;0.47;0.47;;;;;;;7.55;100.00;94967.97;5037918;28;20221;-69
2023/12/22 04:55:47;;;;;;;0.30;0.30;;;;;;;7.49;100.00;94982.63;5037595;28;20555;-68
2023/12/22 04:58:14;;;;;;;0.40;0.40;;;;;;;6.99;100.00;94973.28;5037895;28;20210;-68
2023/12/22 05:00:40;;;;;;;1.03;0.93;;;;;;;6.67;100.00;94965.88;5037141;28;20270;-71
2023/12/22 05:03:07;;;;;;;0.60;0.60;;;;;;;6.49;100.00;94986.38;5037787;28;20236;-68
2023/12/22 05:05:33;;;;;;;0.90;0.80;;;;;;;6.52;100.00;94987.81;5037753;28;20205;-68
2023/12/22 05:08:00;;;;;;;0.50;0.50;;;;;;;6.49;100.00;94977.72;5037083;28;20236;-67
2023/12/22 05:10:26;;;;;;;0.50;0.50;;;;;;;6.47;100.00;94985.75;5037025;28;20202;-67
2023/12/22 05:12:54;;;;;;;1.50;1.33;;;;;;;6.63;100.00;94996.00;5038010;28;20595;-68
2023/12/22 05:15:19;;;;;;;0.97;0.40;;;;;;;6.50;100.00;94989.81;5037136;28;20208;-68
2023/12/22 05:17:46;;;;;;;0.60;0.60;;;;;;;6.53;100.00;95000.72;5037618;28;20209;-68
2023/12/22 05:20:14;;;;;;;0.43;0.43;;;;;;;6.50;100.00;94997.66;5037595;28;20201;-71
2023/12/22 05:22:41;;;;;;;1.13;0.40;;;;;;;6.70;100.00;95010.00;5036887;28;20236;-68
2023/12/22 05:25:09;;;;;;;1.27;0.60;;;;;;;6.80;100.00;95002.66;5037313;28;20205;-69
2023/12/22 05:27:36;;;;;;;0.93;0.43;;;;;;;6.69;100.00;95017.03;5037608;28;20888;-70
2023/12/22 05:30:05;;;;;;;0.30;0.30;;;;;;;6.95;100.00;95006.88;5037209;28;20207;-68
2023/12/22 05:32:32;;;;;;;17.00;0.57;;;;;;;6.98;100.00;95010.94;5034947;28;20252;-68
2023/12/22 05:34:58;;;;;;;0.40;0.40;;;;;;;7.05;100.00;95003.94;5037052;28;20682;-68
2023/12/22 05:37:25;;;;;;;1.27;0.60;;;;;;;7.28;100.00;94997.56;5037101;28;20205;-69
2023/12/22 05:39:51;;;;;;;0.40;0.40;;;;;;;7.31;100.00;94995.34;5036605;28;20581;-69
2023/12/22 05:42:18;;;;;;;2.03;0.90;;;;;;;7.46;100.00;95001.34;5035788;28;20239;-69
2023/12/22 05:44:46;;;;;;;0.50;0.50;;;;;;;7.56;100.00;95001.00;5037496;28;20679;-68
2023/12/22 05:47:14;;;;;;;3.60;0.97;;;;;;;7.66;100.00;94996.28;5037234;28;20205;-68
2023/12/22 05:49:40;;;;;;;0.40;0.40;;;;;;;7.68;100.00;94995.06;5037039;28;20655;-68
2023/12/22 05:52:07;;;;;;;1.53;0.50;;;;;;;7.69;100.00;94996.72;5036999;28;20221;-69
2023/12/22 05:54:35;;;;;;;1.77;0.97;;;;;;;7.77;100.00;95014.13;5036144;28;20201;-71
2023/12/22 05:57:04;;;;;;;1.67;0.70;;;;;;;7.79;100.00;95002.44;5036723;28;20581;-68
2023/12/22 05:59:32;;;;;;;2.20;1.10;;;;;;;7.77;100.00;95022.78;5036619;28;20201;-69
2023/12/22 06:01:58;;;;;;;0.73;0.50;;;;;;;7.89;100.00;95018.63;5035862;28;20232;-69
2023/12/22 06:04:26;;;;;;;2.47;0.47;;;;;;;8.00;100.00;95020.75;5036599;28;20201;-70
2023/12/22 06:06:53;;;;;;;0.40;0.40;;;;;;;7.81;100.00;95010.91;5036562;28;20224;-68
2023/12/22 06:09:20;;;;;;;7.20;0.60;;;;;;;7.90;100.00;95026.34;5035906;28;20237;-70
2023/12/22 06:11:47;;;;;;;1.80;0.97;;;;;;;7.91;100.00;95014.03;5034353;28;21308;-68
2023/12/22 06:14:14;;;;;;;0.80;0.70;;;;;;;7.88;100.00;94998.69;5036654;28;20208;-68
2023/12/22 06:16:41;;;;;;;7.93;1.00;;;;;;;7.86;100.00;95004.09;5036194;28;20567;-68
2023/12/22 06:19:07;;;;;;;2.63;1.43;;;;;;;7.86;100.00;94988.34;5036312;28;20320;-68
2023/12/22 06:21:38;;;;;;;1.40;0.73;;;;;;;8.10;100.00;95014.16;5036057;28;20308;-68
2023/12/22 06:24:05;;;;;;;1.60;0.83;;;;;;;7.94;100.00;95011.00;5036332;28;20233;-68
2023/12/22 06:26:31;;;;;;;3.10;1.10;;;;;;;7.89;100.00;95016.00;5035888;28;20201;-69
2023/12/22 06:28:58;;;;;;;0.60;0.60;;;;;;;7.74;100.00;95025.78;5036303;28;21066;-68
2023/12/22 06:31:24;;;;;;;4.03;0.83;;;;;;;7.53;100.00;95069.53;5036095;28;20198;-68
2023/12/22 06:33:53;;;;;;;0.93;0.60;;;;;;;7.43;100.00;95054.16;5036396;28;20679;-68
2023/12/22 06:36:20;;;;;;;1.23;0.40;;;;;;;7.25;100.00;95041.66;5035717;28;20205;-67
2023/12/22 06:38:48;;;;;;;0.57;0.50;;;;;;;7.26;100.00;95041.44;5035569;28;20212;-67
2023/12/22 06:41:22;;;;;;;2.80;0.93;;;;;;;7.32;100.00;95041.53;5035819;28;20205;-68
2023/12/22 06:43:49;;;;;;;1.17;0.60;;;;;;;7.07;100.00;95042.03;5035812;28;20225;-68
2023/12/22 06:46:17;;;;;;;10.97;0.90;;;;;;;7.17;100.00;95037.31;5035824;28;20201;-68
2023/12/22 06:48:43;;;;;;;0.63;0.63;;;;;;;7.25;100.00;95052.13;5036133;28;20227;-68
2023/12/22 06:51:18;;;;;;;5.13;1.03;;;;;;;7.47;100.00;95050.16;5035238;28;20211;-69
2023/12/22 06:53:45;;;;;;;2.93;0.50;;;;;;;7.35;100.00;95051.63;5036056;28;20205;-68
2023/12/22 06:56:21;;;;;;;1.37;0.67;;;;;;;7.79;100.00;95062.75;5036092;28;20221;-68
2023/12/22 06:58:49;;;;;;;0.73;0.73;;;;;;;7.64;100.00;95084.78;5036371;28;20200;-69
2023/12/22 07:01:20;;;;;;;1.87;0.80;;;;;;;7.85;100.00;95085.56;5035163;28;20216;-70
2023/12/22 07:03:47;;;;;;;7.07;0.87;;;;;;;7.83;100.00;95090.22;5036231;28;20649;-69
2023/12/22 07:06:14;;;;;;;1.50;0.60;;;;;;;7.88;100.00;95091.25;5035638;28;20209;-68
2023/12/22 07:08:41;;;;;;;6.07;0.87;;;;;;;7.92;100.00;95083.84;5035654;28;20205;-67
2023/12/22 07:11:08;;;;;;;2.07;0.73;;;;;;;8.05;100.00;95116.22;5035706;28;20650;-69
2023/12/22 07:13:35;;;;;;;1.23;0.70;;;;;;;8.11;100.00;95117.31;5036534;28;20197;-69
2023/12/22 07:16:02;;;;;;;0.60;0.60;;;;;;;7.86;100.00;95108.97;5034616;28;20205;-69
2023/12/22 07:18:30;;;;;;;0.97;0.90;;;;;;;7.82;100.00;95122.69;5036487;28;20737;-66
2023/12/22 07:20:57;;;;;;;0.60;0.50;;;;;;;7.85;100.00;95121.50;5035636;28;20240;-69
2023/12/22 07:23:23;;;;;;;0.97;0.50;;;;;;;7.85;100.00;95127.53;5035945;28;20236;-69
2023/12/22 07:25:50;;;;;;;1.10;0.70;;;;;;;7.82;100.00;95164.63;5036321;28;20208;-69
2023/12/22 07:28:16;;;;;;;1.33;0.70;;;;;;;7.94;100.00;95144.78;5036161;28;20206;-69
2023/12/22 07:30:44;;;;;;;1.90;1.00;;;;;;;8.06;100.00;95128.34;5035274;28;20210;-68
2023/12/22 07:33:11;;;;;;;0.73;0.73;;;;;;;8.04;100.00;95147.91;5035794;28;20217;-69
2023/12/22 07:35:38;;;;;;;1.67;1.40;;;;;;;7.97;100.00;95149.66;5036791;28;20652;-69
2023/12/22 07:38:04;;;;;;;2.20;0.77;;;;;;;7.98;100.00;95153.88;5035678;28;20201;-69
2023/12/22 07:40:31;;;;;;;1.43;0.43;;;;;;;8.02;100.00;95129.72;5034973;28;20247;-70
2023/12/22 07:42:57;;;;;;;4.47;0.80;;;;;;;8.08;100.00;95157.84;5035575;28;20287;-66
2023/12/22 07:45:24;;;;;;;2.33;0.73;;;;;;;8.08;100.00;95159.63;5035384;28;20197;-69
2023/12/22 07:47:52;;;;;;;0.60;0.60;;;;;;;8.21;100.00;95151.91;5035371;28;20209;-66
2023/12/22 07:50:19;;;;;;;2.20;1.07;;;;;;;8.03;100.00;95164.63;5034838;28;20201;-66
2023/12/22 07:52:45;;;;;;;1.00;0.90;;;;;;;7.80;100.00;95192.84;5035897;28;20225;-68
2023/12/22 07:55:12;;;;;;;0.30;0.30;;;;;;;7.65;100.00;95159.78;5034502;28;20206;-68
2023/12/22 07:57:39;;;;;;;21.13;1.63;;;;;;;7.45;100.00;95187.59;5035457;28;21099;-69
2023/12/22 08:00:07;;;;;;;0.70;0.43;;;;;;;7.49;100.00;95162.66;5035233;28;20202;-69
2023/12/22 08:02:35;;;;;;;0.40;0.40;;;;;;;7.40;100.00;95180.28;5034560;28;20737;-69
2023/12/22 08:05:03;;;;;;;0.70;0.70;;;;;;;7.48;100.00;95211.63;5037216;28;20201;-68
2023/12/22 08:07:30;;;;;;;0.30;0.30;;;;;;;7.38;100.00;95195.38;5039198;28;20201;-65
2023/12/22 08:09:56;;;;;;;0.53;0.50;;;;;;;7.40;100.00;95214.34;5038709;28;20201;-68
2023/12/22 08:12:23;;;;;;;0.63;0.63;;;;;;;7.39;100.00;95202.22;5037556;28;20217;-68
2023/12/22 08:14:50;;;;;;;3.50;0.63;;;;;;;7.29;100.00;95183.38;5038884;28;20582;-69
2023/12/22 08:17:16;;;;;;;3.00;0.60;;;;;;;7.37;100.00;95201.63;5038329;28;20213;-68
2023/12/22 08:19:43;;;;;;;5.10;1.63;;;;;;;7.39;100.00;95204.84;5038411;28;20205;-68
2023/12/22 08:22:12;;;;;;;1.10;0.50;;;;;;;7.65;100.00;95207.81;5037724;28;20225;-68
2023/12/22 08:24:40;;;;;;;2.83;1.00;;;;;;;7.52;100.00;95205.03;5038775;28;20666;-68
2023/12/22 08:27:07;;;;;;;1.30;0.70;;;;;;;7.41;100.00;95244.00;5037568;28;20209;-68
2023/12/22 08:29:33;;;;;;;2.33;1.77;;;;;;;7.59;100.00;95229.50;5038822;28;20205;-68
2023/12/22 08:32:01;;;;;;;1.67;1.27;;;;;;;7.60;100.00;95236.38;5038115;28;20225;-68
2023/12/22 08:34:27;;;;;;;2.60;1.03;;;;;;;7.64;100.00;95248.13;5038501;28;20247;-68
2023/12/22 08:36:54;;;;;;;0.73;0.70;;;;;;;7.70;100.00;95267.56;5037744;28;21192;-68
2023/12/22 08:39:24;;;;;;;0.80;0.80;;;;;;;7.74;100.00;95271.44;5038130;28;20201;-71
2023/12/22 08:41:50;;;;;;;2.13;0.80;;;;;;;7.71;100.00;95262.13;5038155;28;20224;-70
2023/12/22 08:44:17;;;;;;;0.53;0.53;;;;;;;7.47;100.00;95269.47;5037020;28;20262;-70
2023/12/22 08:46:43;;;;;;;5.77;1.43;;;;;;;7.45;100.00;95225.09;5037326;28;20760;-72
2023/12/22 08:49:10;;;;;;;0.87;0.50;;;;;;;7.35;100.00;95242.91;5038767;28;20209;-70
2023/12/22 08:51:36;;;;;;;5.20;0.80;;;;;;;7.45;100.00;95245.25;5037093;28;20221;-69
2023/12/22 08:54:04;;;;;;;1.00;0.90;;;;;;;7.20;100.00;95257.00;5036878;28;20197;-72
2023/12/22 08:56:31;;;;;;;3.23;0.90;;;;;;;7.49;100.00;95273.53;5038185;28;20359;-71
2023/12/22 08:58:59;;;;;;;3.80;1.07;;;;;;;7.05;100.00;95289.41;5038525;28;20210;-67
2023/12/22 09:01:25;;;;;;;1.27;0.70;;;;;;;7.04;100.00;95288.59;5035979;28;21033;-68
2023/12/22 09:03:52;;;;;;;3.33;0.90;;;;;;;6.87;100.00;95266.19;5037498;28;20229;-68
2023/12/22 09:06:20;;;;;;;2.63;0.80;;;;;;;7.01;100.00;95269.81;5037745;28;20212;-69
2023/12/22 09:08:47;;;;;;;3.90;0.90;;;;;;;6.79;100.00;95262.81;5037454;28;20209;-69
2023/12/22 09:11:15;;;;;;;1.27;0.57;;;;;;;6.89;100.00;95268.63;5036695;28;20209;-68
2023/12/22 09:13:44;;;;;;;1.73;1.37;;;;;;;6.90;100.00;95265.81;5038302;28;20225;-69
2023/12/22 09:16:14;;;;;;;1.80;1.27;;;;;;;6.99;100.00;95248.25;5036139;28;21001;-69
2023/12/22 09:18:42;;;;;;;1.60;0.90;;;;;;;6.95;100.00;95242.53;5037258;28;20193;-69
2023/12/22 09:21:08;;;;;;;4.40;1.20;;;;;;;6.83;100.00;95233.47;5036323;28;20205;-69
2023/12/22 09:23:35;;;;;;;4.63;2.00;;;;;;;6.63;100.00;95225.50;5037068;28;20699;-68
2023/12/22 09:26:01;;;;;;;4.40;0.80;;;;;;;6.75;100.00;95225.72;5036975;28;20877;-69
2023/12/22 09:28:28;;;;;;;3.33;1.10;;;;;;;6.80;100.00;95214.72;5037230;28;20207;-69
2023/12/22 09:30:55;;;;;;;5.70;1.77;;;;;;;6.90;100.00;95202.19;5037457;28;20212;-69
2023/12/22 09:33:23;;;;;;;13.67;2.73;;;;;;;6.70;100.00;95206.31;5036809;28;20711;-69
2023/12/22 09:35:50;;;;;;;2.10;1.20;;;;;;;6.76;100.00;95213.44;5037138;28;20221;-69
2023/12/22 09:38:17;;;;;;;1.67;1.03;;;;;;;6.66;100.00;95220.75;5036638;28;20267;-69
2023/12/22 09:40:44;;;;;;;5.47;1.90;;;;;;;6.78;100.00;95232.41;5037004;28;20312;-69
2023/12/22 09:43:15;;;;;;;7.37;2.77;;;;;;;6.79;100.00;95234.81;5036954;28;20595;-69
2023/12/22 09:45:42;;;;;;;5.60;2.77;;;;;;;6.76;100.00;95227.34;5036711;28;20742;-69
2023/12/22 09:48:15;;;;;;;1.50;1.10;;;;;;;6.97;100.00;95237.13;5036617;28;20197;-69
2023/12/22 09:50:43;;;;;;;8.47;2.10;;;;;;;7.02;100.00;95250.50;5036441;28;20874;-69
2023/12/22 09:53:11;;;;;;;4.63;1.80;;;;;;;7.12;100.00;95230.09;5037164;28;20782;-68
2023/12/22 09:55:39;;;;;;;3.13;1.37;;;;;;;7.20;100.00;95224.75;5036582;28;20201;-69
2023/12/22 09:58:09;;;;;;;4.40;1.37;;;;;;;7.31;100.00;95223.28;5036515;28;20209;-69
2023/12/22 10:00:37;;;;;;;5.97;1.47;;;;;;;7.38;100.00;95218.97;5035281;28;20205;-69
2023/12/22 10:03:05;;;;;;;0.63;0.50;;;;;;;7.51;100.00;95223.53;5035628;28;20218;-68
2023/12/22 10:05:33;;;;;;;4.07;1.30;;;;;;;7.63;100.00;95217.66;5035904;28;20687;-69
2023/12/22 10:08:01;;;;;;;7.93;1.00;;;;;;;7.61;100.00;95211.81;5034475;28;20201;-68
2023/12/22 10:10:30;;;;;;;2.63;0.70;;;;;;;7.63;100.00;95204.56;5036509;28;20197;-69
2023/12/22 10:12:57;;;;;;;0.63;0.63;;;;;;;7.73;100.00;95199.03;5035991;28;20221;-68
2023/12/22 10:15:24;;;;;;;7.70;0.87;;;;;;;7.71;100.00;95182.66;5036333;28;20214;-68
2023/12/22 10:17:51;;;;;;;6.03;0.83;;;;;;;7.75;100.00;95192.59;5036753;28;20205;-68
2023/12/22 10:20:17;;;;;;;5.73;0.50;;;;;;;7.62;100.00;95189.00;5036874;28;20212;-68
2023/12/22 10:22:46;;;;;;;3.60;0.57;;;;;;;7.86;100.00;95218.34;5035464;28;20224;-68
2023/12/22 10:25:15;;;;;;;10.90;1.03;;;;;;;7.92;100.00;95226.28;5036029;28;20225;-68
2023/12/22 10:27:43;;;;;;;1.60;0.57;;;;;;;7.76;100.00;95230.91;5036072;28;20453;-68
2023/12/22 10:30:11;;;;;;;2.43;0.80;;;;;;;7.88;100.00;95227.63;5036069;28;20201;-68
2023/12/22 10:32:41;;;;;;;0.97;0.80;;;;;;;7.88;100.00;95226.84;5035547;28;20235;-68
2023/12/22 10:35:08;;;;;;;5.73;0.73;;;;;;;7.73;100.00;95212.94;5035577;28;20655;-68
2023/12/22 10:37:36;;;;;;;2.07;0.70;;;;;;;7.76;100.00;95236.16;5035863;28;20710;-68
2023/12/22 10:40:05;;;;;;;0.73;0.53;;;;;;;7.95;100.00;95233.75;5035770;28;20209;-68
2023/12/22 10:42:32;;;;;;;1.93;1.13;;;;;;;7.88;100.00;95218.97;5036088;28;20221;-68
2023/12/22 10:45:00;;;;;;;4.00;1.43;;;;;;;7.86;100.00;95217.53;5035740;28;20221;-69
2023/12/22 10:47:26;;;;;;;1.33;0.60;;;;;;;7.81;100.00;95220.69;5036439;28;20205;-69
2023/12/22 10:49:53;;;;;;;0.73;0.73;;;;;;;7.72;100.00;95218.38;5036365;28;20582;-69
2023/12/22 10:52:20;;;;;;;3.23;0.90;;;;;;;7.79;100.00;95212.22;5035276;28;20319;-69
2023/12/22 10:54:48;;;;;;;0.83;0.60;;;;;;;7.73;100.00;95212.16;5035888;28;20235;-68
2023/12/22 10:57:19;;;;;;;5.97;1.77;;;;;;;8.03;100.00;95209.22;5036154;28;20212;-69
2023/12/22 10:59:46;;;;;;;4.60;1.83;;;;;;;7.90;100.00;95202.06;5036486;28;20205;-68
2023/12/22 11:02:17;;;;;;;1.77;1.20;;;;;;;8.07;100.00;95184.25;5034983;28;20237;-68
2023/12/22 11:04:51;;;;;;;4.03;1.43;;;;;;;7.97;100.00;95191.63;5036302;28;20225;-68
2023/12/22 11:07:20;;;;;;;4.00;0.93;;;;;;;7.86;100.00;95180.81;5034384;28;20204;-69
2023/12/22 11:09:51;;;;;;;1.90;0.93;;;;;;;8.00;100.00;95196.50;5035914;28;20216;-69
2023/12/22 11:12:20;;;;;;;1.70;0.87;;;;;;;8.13;100.00;95178.25;5035023;28;20225;-69
2023/12/22 11:14:50;;;;;;;1.10;0.90;;;;;;;8.08;100.00;95175.38;5035702;28;20212;-69
2023/12/22 11:17:20;;;;;;;0.70;0.70;;;;;;;8.04;100.00;95169.72;5035682;28;20204;-69
2023/12/22 11:19:49;;;;;;;1.47;1.10;;;;;;;8.21;100.00;95165.03;5036862;28;20271;-69
2023/12/22 11:22:17;;;;;;;0.50;0.50;;;;;;;8.21;100.00;95170.28;5034868;28;20225;-69
2023/12/22 11:24:47;;;;;;;3.23;1.27;;;;;;;8.25;100.00;95169.72;5035437;28;20225;-69
2023/12/22 11:27:14;;;;;;;2.30;1.13;;;;;;;8.21;100.00;95163.25;5036480;28;20220;-69
2023/12/22 11:29:42;;;;;;;1.27;0.33;;;;;;;8.35;100.00;95167.59;5035830;28;20224;-68
2023/12/22 11:32:11;;;;;;;2.87;1.33;;;;;;;8.23;100.00;95149.94;5034848;28;20278;-68
2023/12/22 11:34:39;;;;;;;4.70;0.93;;;;;;;8.18;100.00;95142.59;5035098;28;20204;-69